首页
METAR-TAF:

METAR-TAF

机场 :

北巴特爾福德, 薩斯喀徹溫, 加拿大

纬度: 52-46N, 经度: 108-15W, 海拔: 548米

当前天气观测

该预报发布于54分钟前的05:00 UTC
风速5节,风向
温度 14°C
湿度 58%
气压 1013 hPa
能見度: 14.5公里
散云层高于9500英尺
多云层高于13000英尺

METAR: CYQW 250500Z AUTO 18005KT 9SM SCT095 BKN130 14/06 A2991 RMK SLP139 DENSITY ALT 2000FT

时间: 23:54 (05:54 UTC)

预报

该预报发布于16分钟前的05:38 UTC
预报有效从25日的 06点(UTC)到 25日的 18点(UTC)
风速5节,风向
能見度: 10公里
散云层高于9000英尺
多云层高于12000英尺
从 25日的 0900点(UTC)
风速8节,风向南转西南
能見度: 10公里
少量云层高于9000英尺
散云层高于12000英尺

TAF: CYQW 250538Z 2506/2518 18005KT P6SM SCT090 BKN120 FM250900 21008KT P6SM FEW090 SCT120 RMK FCST BASED ON AUTO OBS. NXT FCST BY 251200Z

超过4000个机场的气象观测和天气预报(METAR&TAF报告)。

可查询的气象台以黄色和红色小点在地图上表示。

将鼠标移到小点上方,可查看气象台名称。

然后点击查看天气观测和预报。

如需切换地图:点击带黑十字的绿色按钮放大地图;点击带横线的绿色按钮缩小地图;或者点击绿色箭头查看邻近地区的地图。


METAR-TAF: